Terminal Aerodrome Forecast
Issued by NWS Blacksburg, VA

Home | Current Version | Previous Version | Text Only | Print | Product List | Glossary On
Versions: 1 2 3 4 5 6 7 8 9 10 11 12 13 14 15 16 17 18 19 20 21 22 23
000
FTUS41 KRNK 202327
TAFLYH
TAF
KLYH 202327Z 2100/2124 19004KT P6SM BKN050 OVC080
     FM210700 00000KT 4SM BR OVC020
     FM211200 06003KT P6SM BKN030
     FM211600 10004KT P6SM BKN040=

USA.gov is the U.S. government's official web portal to all federal, state and local government web resources and services.